Time;durP1;ratioP1;P1;durP2;ratioP2;P2;SDS_P1;SDS_P2;PMS_P1;PMS_P2;Temp;Humidity;BMP_temperature;BMP_pressure;BME280_temperature;BME280_humidity;BME280_pressure;Samples;Min_cycle;Max_cycle;Signal;HPM_P1;HPM_P2
2022/02/01 00:01:26;;;;;;;14.73;3.80;;;3.20;99.90;;;;;;5073041;28;20282;-64
2022/02/01 00:04:00;;;;;;;19.50;4.17;;;3.10;99.90;;;;;;5067991;28;20225;-65
2022/02/01 00:06:39;;;;;;;15.27;3.63;;;3.00;99.90;;;;;;5068081;28;20207;-65
2022/02/01 00:09:16;;;;;;;18.90;3.50;;;2.90;99.90;;;;;;5068153;28;20244;-64
2022/02/01 00:11:55;;;;;;;12.03;4.20;;;2.80;99.90;;;;;;5064002;28;20734;-65
2022/02/01 00:14:33;;;;;;;14.57;3.77;;;2.70;99.90;;;;;;5063704;28;20192;-65
2022/02/01 00:17:44;;;;;;;20.43;3.73;;;2.70;99.90;;;;;;5068008;28;20296;-64
2022/02/01 00:20:23;;;;;;;15.03;4.53;;;2.60;99.90;;;;;;5062388;28;20243;-64
2022/02/01 00:34:08;;;;;;;16.90;4.73;;;2.10;99.90;;;;;;5060839;28;20203;-64
2022/02/01 00:36:41;;;;;;;15.63;4.30;;;2.10;99.90;;;;;;5060195;28;20296;-64
2022/02/01 00:39:12;;;;;;;18.70;4.30;;;2.00;99.90;;;;;;5061580;28;20626;-64
2022/02/01 00:41:47;;;;;;;14.27;4.53;;;1.90;99.90;;;;;;5066839;28;20200;-64
2022/02/01 00:44:17;;;;;;;18.40;4.70;;;1.90;99.90;;;;;;5052963;28;20285;-65
2022/02/01 00:46:46;;;;;;;18.83;4.37;;;1.90;99.90;;;;;;5059554;28;20208;-64
2022/02/01 00:49:15;;;;;;;19.07;4.03;;;1.90;99.90;;;;;;5064789;28;20246;-64
2022/02/01 00:51:45;;;;;;;14.83;4.40;;;1.90;99.90;;;;;;5064288;28;20249;-65
2022/02/01 00:54:13;;;;;;;15.27;3.80;;;1.90;99.90;;;;;;5061880;28;20682;-65
2022/02/01 00:56:41;;;;;;;16.13;4.20;;;1.90;99.90;;;;;;5056150;28;20246;-65
2022/02/01 00:59:10;;;;;;;22.77;4.23;;;1.90;99.90;;;;;;5066470;28;20271;-64
2022/02/01 01:01:38;;;;;;;15.50;5.40;;;1.80;99.90;;;;;;5057288;28;20342;-64
2022/02/01 01:04:09;;;;;;;10.87;3.47;;;1.90;99.90;;;;;;5065958;28;20195;-65
2022/02/01 01:06:37;;;;;;;9.70;3.30;;;2.00;99.90;;;;;;5056042;28;20242;-65
2022/02/01 01:09:06;;;;;;;18.13;3.70;;;1.90;99.90;;;;;;5058980;28;20228;-65
2022/02/01 01:11:34;;;;;;;15.70;3.50;;;1.90;99.90;;;;;;5064702;28;20198;-65
2022/02/01 01:17:41;;;;;;;12.43;3.70;;;2.00;99.90;;;;;;5058958;28;20200;-65
2022/02/01 01:45:16;;;;;;;15.27;3.50;;;2.30;99.90;;;;;;5062133;28;20192;-65
2022/02/01 01:53:21;;;;;;;14.17;3.40;;;2.30;99.90;;;;;;5060967;28;20291;-65
2022/02/01 01:55:52;;;;;;;12.80;3.20;;;2.40;99.90;;;;;;5053938;28;20199;-65
2022/02/01 01:58:22;;;;;;;17.03;3.40;;;2.40;99.90;;;;;;5060072;28;20191;-65
2022/02/01 02:01:14;;;;;;;5.93;3.00;;;2.50;99.90;;;;;;5057030;28;20380;-65
2022/02/01 02:03:44;;;;;;;12.90;3.13;;;2.60;99.90;;;;;;5062230;28;20226;-65
2022/02/01 02:06:14;;;;;;;13.23;3.63;;;2.70;99.90;;;;;;5058508;28;20193;-65
2022/02/01 02:08:47;;;;;;;14.20;3.43;;;2.80;99.90;;;;;;5062203;28;20189;-64
2022/02/01 02:11:23;;;;;;;11.77;3.50;;;2.80;99.90;;;;;;5042102;28;20200;-65
2022/02/01 02:16:40;;;;;;;13.97;3.40;;;2.90;99.90;;;;;;5069347;28;20195;-65
2022/02/01 02:19:10;;;;;;;14.63;3.40;;;3.00;99.90;;;;;;5057227;28;20193;-65
2022/02/01 02:21:40;;;;;;;15.70;4.40;;;3.00;99.90;;;;;;5055894;28;20220;-65
2022/02/01 02:24:09;;;;;;;18.67;3.90;;;3.00;99.90;;;;;;5042556;28;20200;-65
2022/02/01 02:26:38;;;;;;;11.67;3.30;;;3.00;99.90;;;;;;5061353;28;20200;-65
2022/02/01 02:29:06;;;;;;;10.67;3.40;;;3.10;99.90;;;;;;5063285;28;20197;-65
2022/02/01 02:31:38;;;;;;;12.23;3.70;;;3.10;99.90;;;;;;5065883;28;20191;-65
2022/02/01 02:34:11;;;;;;;17.13;3.73;;;3.10;99.90;;;;;;5059970;28;20296;-65
2022/02/01 02:36:46;;;;;;;13.30;3.57;;;3.10;99.90;;;;;;5060347;28;20271;-65
2022/02/01 02:39:26;;;;;;;16.57;4.00;;;3.20;99.90;;;;;;5059538;28;20203;-65
2022/02/01 02:42:07;;;;;;;14.37;4.27;;;3.10;99.90;;;;;;5059427;28;20247;-65
2022/02/01 02:47:24;;;;;;;15.73;3.87;;;3.20;99.90;;;;;;5062352;28;20196;-65
2022/02/01 02:49:52;;;;;;;16.17;3.70;;;3.20;99.90;;;;;;5060867;28;20191;-65
2022/02/01 02:52:26;;;;;;;19.97;4.20;;;3.30;99.90;;;;;;5053987;28;20219;-65
2022/02/01 02:54:55;;;;;;;16.53;3.73;;;3.30;99.90;;;;;;5058436;28;20196;-65
2022/02/01 02:57:25;;;;;;;15.27;4.43;;;3.30;99.90;;;;;;5056915;28;20771;-65
2022/02/01 02:59:54;;;;;;;17.53;4.10;;;3.30;99.90;;;;;;5059350;28;20198;-65
2022/02/01 03:02:23;;;;;;;22.33;4.47;;;3.30;99.90;;;;;;5057182;28;20244;-65
2022/02/01 03:04:51;;;;;;;22.57;4.60;;;3.30;99.90;;;;;;5059668;28;20204;-65
2022/02/01 03:07:20;;;;;;;20.43;4.40;;;3.30;99.90;;;;;;5062359;28;20331;-65
2022/02/01 03:09:50;;;;;;;22.60;4.93;;;3.40;99.90;;;;;;5062336;28;20208;-65
2022/02/01 03:12:33;;;;;;;14.07;4.70;;;3.40;99.90;;;;;;5060153;28;20757;-65
2022/02/01 03:15:23;;;;;;;18.43;4.27;;;3.40;99.90;;;;;;5068991;28;20745;-64
2022/02/01 03:20:37;;;;;;;17.07;4.67;;;3.40;99.90;;;;;;5062937;28;20195;-65
2022/02/01 03:23:05;;;;;;;30.30;5.17;;;3.40;99.90;;;;;;5058060;28;20692;-65
2022/02/01 03:25:35;;;;;;;20.40;5.33;;;3.50;99.90;;;;;;5059300;28;20195;-65
2022/02/01 03:28:04;;;;;;;17.43;5.10;;;3.50;99.90;;;;;;5058184;28;20195;-65
2022/02/01 03:30:32;;;;;;;18.20;5.47;;;3.50;99.90;;;;;;5067601;28;20200;-65
2022/02/01 03:33:01;;;;;;;24.80;5.80;;;3.50;99.90;;;;;;5060302;28;20221;-65
2022/02/01 03:35:30;;;;;;;22.00;6.30;;;3.50;99.90;;;;;;5056758;28;20196;-65
2022/02/01 03:38:00;;;;;;;25.77;6.17;;;3.50;99.90;;;;;;5058002;28;20231;-65
2022/02/01 03:40:29;;;;;;;22.63;6.73;;;3.50;99.90;;;;;;5059569;28;20200;-65
2022/02/01 03:42:59;;;;;;;23.80;5.97;;;3.60;99.90;;;;;;5059086;28;20216;-65
2022/02/01 03:45:28;;;;;;;17.27;6.03;;;3.60;99.90;;;;;;5062816;28;20250;-65
2022/02/01 03:47:56;;;;;;;25.73;6.93;;;3.60;99.90;;;;;;5063461;28;20279;-65
2022/02/01 03:50:25;;;;;;;29.93;8.13;;;3.60;99.90;;;;;;5059573;28;20238;-65
2022/02/01 03:52:54;;;;;;;23.80;6.93;;;3.60;99.90;;;;;;5063374;28;20196;-65
2022/02/01 03:55:23;;;;;;;21.87;6.90;;;3.70;99.90;;;;;;5057667;28;20203;-65
2022/02/01 03:57:52;;;;;;;22.63;6.90;;;3.60;99.90;;;;;;5060466;28;20197;-65
2022/02/01 04:00:24;;;;;;;24.50;6.73;;;3.70;99.90;;;;;;5064212;28;20274;-65
2022/02/01 04:02:53;;;;;;;29.63;6.53;;;3.70;99.90;;;;;;5061093;28;20292;-65
2022/02/01 04:05:22;;;;;;;24.57;7.27;;;3.80;99.90;;;;;;5062517;28;20294;-65
2022/02/01 04:07:51;;;;;;;25.03;7.03;;;3.70;99.90;;;;;;5062445;28;20195;-65
2022/02/01 04:10:20;;;;;;;23.20;7.13;;;3.80;99.90;;;;;;5063526;28;20219;-65
2022/02/01 04:12:50;;;;;;;23.70;7.17;;;3.80;99.90;;;;;;5063775;28;20627;-65
2022/02/01 04:15:24;;;;;;;19.03;7.13;;;3.80;99.90;;;;;;5061867;28;20200;-65
2022/02/01 04:17:54;;;;;;;24.53;7.50;;;3.80;99.90;;;;;;5062785;28;20212;-65
2022/02/01 04:20:25;;;;;;;30.37;7.90;;;3.80;99.90;;;;;;5063488;28;20196;-65
2022/02/01 04:22:54;;;;;;;30.57;8.20;;;3.80;99.90;;;;;;5072277;28;20305;-65
2022/02/01 04:25:23;;;;;;;26.40;7.10;;;3.80;99.90;;;;;;5057802;28;20253;-65
2022/02/01 04:27:51;;;;;;;24.57;7.23;;;3.90;99.90;;;;;;5066209;28;20215;-65
2022/02/01 04:30:22;;;;;;;23.67;7.37;;;3.90;99.90;;;;;;5071685;28;20208;-65
2022/02/01 04:32:53;;;;;;;21.50;7.60;;;3.90;99.90;;;;;;5067307;28;20268;-65
2022/02/01 04:35:24;;;;;;;23.37;7.43;;;3.90;99.90;;;;;;5057451;28;20679;-65
2022/02/01 04:37:54;;;;;;;20.57;7.17;;;3.90;99.90;;;;;;5054064;28;20192;-65
2022/02/01 04:40:24;;;;;;;19.77;7.87;;;3.90;99.90;;;;;;5060270;28;20688;-65
2022/02/01 04:42:52;;;;;;;25.50;7.17;;;3.90;99.90;;;;;;5072067;28;20268;-65
2022/02/01 04:45:24;;;;;;;29.07;7.60;;;4.00;99.90;;;;;;5060540;28;20681;-65
2022/02/01 04:47:53;;;;;;;18.87;6.80;;;4.00;99.90;;;;;;5063800;28;20286;-65
2022/02/01 04:50:24;;;;;;;20.17;7.17;;;4.00;99.90;;;;;;5061048;28;20616;-64
2022/02/01 04:52:54;;;;;;;24.63;6.93;;;4.00;99.90;;;;;;5059933;28;20188;-65
2022/02/01 04:55:27;;;;;;;29.57;7.73;;;4.10;99.90;;;;;;5063567;28;20749;-65
2022/02/01 04:57:55;;;;;;;27.30;7.50;;;4.00;99.90;;;;;;5060639;28;20910;-64
2022/02/01 05:00:29;;;;;;;26.80;7.90;;;4.00;99.90;;;;;;5060525;28;20200;-64
2022/02/01 05:02:58;;;;;;;20.63;7.87;;;4.10;99.90;;;;;;5063113;28;20224;-65
2022/02/01 05:05:29;;;;;;;18.70;7.00;;;4.10;99.90;;;;;;5056994;28;20220;-65
2022/02/01 05:08:00;;;;;;;24.13;7.90;;;4.10;99.90;;;;;;5062248;28;20303;-64
2022/02/01 05:10:31;;;;;;;24.40;7.57;;;4.10;99.90;;;;;;5062657;28;20196;-64
2022/02/01 05:13:20;;;;;;;24.20;8.03;;;4.10;99.90;;;;;;5057493;28;20212;-65
2022/02/01 05:15:51;;;;;;;22.70;7.60;;;4.10;99.90;;;;;;5066611;28;20314;-65
2022/02/01 05:18:24;;;;;;;24.40;7.43;;;4.00;99.90;;;;;;5062474;28;20289;-65
2022/02/01 05:20:57;;;;;;;25.00;7.67;;;4.10;99.90;;;;;;5058342;28;20193;-65
2022/02/01 05:23:26;;;;;;;23.50;8.17;;;4.10;99.90;;;;;;5063169;28;20212;-66
2022/02/01 05:25:57;;;;;;;26.33;8.27;;;4.10;99.90;;;;;;5059950;28;20900;-65
2022/02/01 05:28:27;;;;;;;29.20;8.17;;;4.10;99.90;;;;;;5056276;28;20266;-65
2022/02/01 05:31:02;;;;;;;26.93;7.80;;;4.10;99.90;;;;;;5060277;28;20222;-65
2022/02/01 05:33:31;;;;;;;33.50;8.73;;;4.10;99.90;;;;;;5059619;28;20274;-66
2022/02/01 05:36:03;;;;;;;21.50;8.20;;;4.10;99.90;;;;;;5058169;28;20199;-65
2022/02/01 05:38:32;;;;;;;21.17;7.70;;;4.10;99.90;;;;;;5068473;28;20203;-65
2022/02/01 05:41:00;;;;;;;24.60;8.07;;;4.10;99.90;;;;;;5065268;28;20207;-65
2022/02/01 05:43:29;;;;;;;27.80;8.33;;;4.10;99.90;;;;;;5064871;28;20248;-65
2022/02/01 05:46:00;;;;;;;32.43;8.30;;;4.10;99.90;;;;;;5065222;28;20977;-65
2022/02/01 05:48:29;;;;;;;22.10;8.33;;;4.00;99.90;;;;;;5065087;28;20207;-65
2022/02/01 05:51:00;;;;;;;27.60;8.67;;;4.00;99.90;;;;;;5059129;28;20566;-65
2022/02/01 05:53:28;;;;;;;21.30;8.77;;;4.00;99.90;;;;;;5062758;28;20693;-65
2022/02/01 05:55:57;;;;;;;31.07;9.47;;;4.00;99.90;;;;;;5057891;28;20193;-65
2022/02/01 05:58:27;;;;;;;22.63;8.47;;;4.00;99.90;;;;;;5045647;28;20666;-65
2022/02/01 06:00:55;;;;;;;30.23;9.20;;;3.90;99.90;;;;;;5062068;28;20886;-65
2022/02/01 06:03:25;;;;;;;26.60;8.67;;;3.90;99.90;;;;;;5058064;28;20212;-65
2022/02/01 06:05:54;;;;;;;27.23;9.00;;;4.00;99.90;;;;;;5055276;28;20192;-64
2022/02/01 06:08:22;;;;;;;27.07;8.47;;;4.00;99.90;;;;;;5061083;28;20203;-65
2022/02/01 06:10:51;;;;;;;23.87;8.27;;;3.90;99.90;;;;;;5052034;28;20226;-65
2022/02/01 06:13:19;;;;;;;18.20;9.50;;;4.00;99.90;;;;;;5041326;28;20238;-65
2022/02/01 06:15:47;;;;;;;25.07;9.27;;;4.00;99.90;;;;;;5070040;28;20235;-65
2022/02/01 06:18:17;;;;;;;23.37;8.23;;;4.00;99.90;;;;;;5057404;28;20283;-65
2022/02/01 06:20:47;;;;;;;22.23;9.30;;;4.00;99.90;;;;;;5063382;28;20562;-65
2022/02/01 06:23:17;;;;;;;27.20;9.70;;;4.00;99.90;;;;;;5067665;28;20752;-65
2022/02/01 06:25:49;;;;;;;18.57;9.03;;;4.00;99.90;;;;;;5062751;28;20212;-65
2022/02/01 06:28:19;;;;;;;19.13;9.43;;;4.10;99.90;;;;;;5062801;28;20206;-65
2022/02/01 06:30:49;;;;;;;28.57;10.17;;;4.10;99.90;;;;;;5060074;28;20231;-65
2022/02/01 06:33:18;;;;;;;21.10;9.87;;;4.20;99.90;;;;;;5058499;28;20793;-65
2022/02/01 06:35:48;;;;;;;21.30;10.37;;;4.20;99.90;;;;;;5055123;28;20679;-65
2022/02/01 06:38:17;;;;;;;22.93;10.60;;;4.20;99.90;;;;;;5053345;28;20659;-65
2022/02/01 06:40:47;;;;;;;20.57;10.47;;;4.20;99.90;;;;;;5056926;28;20556;-65
2022/02/01 06:43:17;;;;;;;23.03;10.40;;;4.20;99.90;;;;;;5055919;28;20585;-65
2022/02/01 06:45:45;;;;;;;17.93;9.43;;;4.30;99.90;;;;;;5057808;28;20251;-65
2022/02/01 06:48:17;;;;;;;24.83;10.53;;;4.30;99.90;;;;;;5061801;28;20196;-65
2022/02/01 06:50:48;;;;;;;23.50;10.40;;;4.30;99.90;;;;;;5055141;28;20199;-65
2022/02/01 06:53:19;;;;;;;24.37;10.03;;;4.30;99.90;;;;;;5062351;28;20223;-65
2022/02/01 06:55:59;;;;;;;16.77;9.73;;;4.30;99.90;;;;;;5054460;28;20203;-65
2022/02/01 06:58:28;;;;;;;19.90;10.30;;;4.40;99.90;;;;;;5058982;28;20204;-65
2022/02/01 07:00:56;;;;;;;21.30;9.33;;;4.40;99.90;;;;;;5057340;28;20200;-65
2022/02/01 07:03:25;;;;;;;21.30;9.73;;;4.40;99.90;;;;;;5069977;28;20298;-65
2022/02/01 07:05:55;;;;;;;15.90;9.03;;;4.50;99.90;;;;;;5064964;28;20686;-65
2022/02/01 07:08:24;;;;;;;17.20;9.50;;;4.60;99.90;;;;;;5063570;28;20197;-65
2022/02/01 07:10:52;;;;;;;21.80;9.67;;;4.60;99.90;;;;;;5065236;28;20188;-65
2022/02/01 07:13:21;;;;;;;29.53;10.37;;;4.60;99.90;;;;;;5073697;28;20748;-65
2022/02/01 07:15:49;;;;;;;20.70;9.67;;;4.60;99.90;;;;;;5066704;28;20882;-66
2022/02/01 07:18:18;;;;;;;27.13;10.43;;;4.60;99.90;;;;;;5062145;28;20207;-66
2022/02/01 07:20:47;;;;;;;22.57;10.47;;;4.60;99.90;;;;;;5072206;28;20608;-66
2022/02/01 07:23:22;;;;;;;21.83;10.37;;;4.70;99.90;;;;;;5065835;28;20950;-65
2022/02/01 07:25:51;;;;;;;24.00;10.30;;;4.70;99.90;;;;;;5069513;28;20252;-66
2022/02/01 07:28:21;;;;;;;23.10;10.67;;;4.80;99.90;;;;;;5058993;28;20653;-65
2022/02/01 07:30:52;;;;;;;25.80;10.73;;;4.80;99.90;;;;;;5061099;28;20650;-66
2022/02/01 07:33:20;;;;;;;23.07;11.17;;;4.80;99.90;;;;;;5060241;28;20207;-65
2022/02/01 07:35:49;;;;;;;26.60;11.20;;;4.90;99.90;;;;;;5061291;28;20193;-66
2022/02/01 07:38:22;;;;;;;20.40;10.47;;;4.90;99.90;;;;;;5071377;28;20689;-65
2022/02/01 07:40:50;;;;;;;22.77;11.40;;;4.90;99.90;;;;;;5063104;28;20209;-66
2022/02/01 07:43:20;;;;;;;30.47;13.10;;;5.00;99.90;;;;;;5071978;28;20228;-66
2022/02/01 07:45:52;;;;;;;25.97;11.63;;;4.90;99.90;;;;;;5068843;28;20200;-65
2022/02/01 07:55:56;;;;;;;25.73;11.83;;;5.00;99.90;;;;;;5065566;28;20599;-65
2022/02/01 07:58:25;;;;;;;32.87;12.00;;;5.10;99.90;;;;;;5070887;28;20246;-66
2022/02/01 08:00:53;;;;;;;36.47;13.03;;;5.10;99.90;;;;;;5071164;28;20961;-66
2022/02/01 08:03:22;;;;;;;29.70;13.03;;;5.10;99.90;;;;;;5076367;28;20279;-66
2022/02/01 08:05:51;;;;;;;28.00;12.87;;;5.20;99.90;;;;;;5070571;28;20189;-65
2022/02/01 08:08:22;;;;;;;32.30;13.83;;;5.20;99.90;;;;;;5067858;28;20200;-66
2022/02/01 08:10:54;;;;;;;29.43;12.53;;;5.20;99.90;;;;;;5077468;28;20254;-65
2022/02/01 08:19:25;;;;;;;29.67;13.30;;;5.30;99.90;;;;;;5020576;28;20201;-65
2022/02/01 08:21:55;;;;;;;31.03;12.80;;;5.30;99.90;;;;;;5023090;28;20245;-65
2022/02/01 08:24:24;;;;;;;25.57;12.70;;;5.30;99.90;;;;;;5044419;28;20256;-65
2022/02/01 08:26:54;;;;;;;29.00;13.20;;;5.40;99.90;;;;;;5059503;28;20192;-65
2022/02/01 08:29:22;;;;;;;23.57;13.37;;;5.40;99.90;;;;;;5061652;28;20205;-65
2022/02/01 08:31:51;;;;;;;28.17;13.07;;;5.50;99.90;;;;;;5071727;28;20258;-65
2022/02/01 08:34:20;;;;;;;23.63;12.67;;;5.50;99.90;;;;;;5061321;28;20193;-65
2022/02/01 08:36:49;;;;;;;28.23;12.50;;;5.50;99.90;;;;;;5060726;28;20765;-65
2022/02/01 08:39:18;;;;;;;26.27;13.20;;;5.50;99.90;;;;;;5065118;28;20196;-66
2022/02/01 08:41:47;;;;;;;26.97;13.20;;;5.50;99.90;;;;;;5063060;28;20188;-65
2022/02/01 08:44:22;;;;;;;27.13;14.07;;;5.60;99.90;;;;;;5060215;28;20235;-65
2022/02/01 08:46:51;;;;;;;24.40;13.33;;;5.60;99.90;;;;;;5060320;28;20204;-65
2022/02/01 08:49:19;;;;;;;25.63;13.50;;;5.70;99.90;;;;;;5060389;28;20227;-65
2022/02/01 08:51:57;;;;;;;42.60;23.10;;;5.70;99.90;;;;;;5066602;28;20242;-65
2022/02/01 08:54:29;;;;;;;52.80;26.47;;;5.70;99.90;;;;;;5067790;28;20664;-65
2022/02/01 08:59:46;;;;;;;28.43;17.67;;;5.80;99.90;;;;;;5070881;28;20623;-66
2022/02/01 09:02:17;;;;;;;29.00;13.90;;;5.80;99.90;;;;;;5063917;28;20193;-66
2022/02/01 09:04:46;;;;;;;28.67;14.70;;;5.80;99.90;;;;;;5061646;28;20208;-65
2022/02/01 09:07:14;;;;;;;21.80;13.37;;;5.90;99.90;;;;;;5061082;28;20282;-65
2022/02/01 09:09:43;;;;;;;25.57;13.00;;;5.90;99.90;;;;;;5054316;28;20245;-66
2022/02/01 09:12:12;;;;;;;28.30;13.90;;;5.90;99.90;;;;;;5056657;28;20232;-66
2022/02/01 09:14:44;;;;;;;25.03;12.70;;;5.90;99.90;;;;;;5069643;28;20901;-66
2022/02/01 09:17:12;;;;;;;24.40;13.60;;;5.90;99.90;;;;;;5059809;28;20203;-65
2022/02/01 09:19:42;;;;;;;26.10;13.33;;;5.90;99.90;;;;;;5072626;28;20207;-67
2022/02/01 09:22:10;;;;;;;26.03;13.47;;;6.00;99.90;;;;;;5058652;28;20200;-67
2022/02/01 09:24:40;;;;;;;27.33;13.60;;;6.10;99.90;;;;;;5053939;28;20936;-65
2022/02/01 09:27:09;;;;;;;25.03;13.80;;;6.00;99.90;;;;;;5067263;28;20196;-66
2022/02/01 09:29:38;;;;;;;22.17;13.30;;;6.10;99.90;;;;;;5067002;28;20241;-65
2022/02/01 09:32:08;;;;;;;22.83;12.27;;;6.10;99.90;;;;;;5063048;28;20659;-68
2022/02/01 09:34:57;;;;;;;23.30;12.13;;;6.10;99.90;;;;;;5059943;28;20549;-66
2022/02/01 09:37:26;;;;;;;25.57;12.47;;;6.20;99.90;;;;;;5061767;28;20188;-67
2022/02/01 09:39:55;;;;;;;27.73;12.57;;;6.30;99.90;;;;;;5057927;28;20325;-67
2022/02/01 09:42:27;;;;;;;19.90;12.13;;;6.40;99.90;;;;;;5054281;28;20492;-67
2022/02/01 09:44:56;;;;;;;28.57;12.50;;;6.30;99.90;;;;;;5057522;28;20244;-67
2022/02/01 09:47:36;;;;;;;22.90;11.73;;;6.40;99.90;;;;;;5063955;28;20253;-67
2022/02/01 09:50:05;;;;;;;23.30;12.70;;;6.50;99.90;;;;;;5065727;28;20215;-67
2022/02/01 09:52:34;;;;;;;28.13;13.23;;;6.50;99.90;;;;;;5062897;28;20278;-66
2022/02/01 09:55:05;;;;;;;24.27;12.33;;;6.50;99.90;;;;;;5062709;28;20196;-67
2022/02/01 09:57:34;;;;;;;29.40;12.97;;;6.60;99.90;;;;;;5064501;28;20234;-66
2022/02/01 10:00:13;;;;;;;31.17;14.47;;;6.60;99.90;;;;;;5068218;28;20621;-67
2022/02/01 10:03:04;;;;;;;35.00;16.70;;;6.60;99.90;;;;;;5062639;28;20207;-67
2022/02/01 10:05:35;;;;;;;29.70;13.47;;;6.70;99.90;;;;;;5056154;28;20200;-66
2022/02/01 10:08:05;;;;;;;27.27;13.57;;;6.70;99.90;;;;;;5060282;28;20253;-66
2022/02/01 10:10:33;;;;;;;32.03;13.87;;;6.70;99.90;;;;;;5058821;28;20287;-67
2022/02/01 10:13:08;;;;;;;24.30;14.73;;;6.70;99.90;;;;;;5063393;28;20199;-67
2022/02/01 10:15:37;;;;;;;31.10;14.50;;;6.80;99.90;;;;;;5066659;28;20188;-67
2022/02/01 10:18:09;;;;;;;50.40;30.07;;;6.80;99.90;;;;;;5062337;28;20662;-66
2022/02/01 10:20:41;;;;;;;36.13;17.03;;;6.90;99.90;;;;;;5065305;28;20253;-67
2022/02/01 10:23:20;;;;;;;34.17;14.47;;;6.90;99.90;;;;;;5062668;28;20187;-67
2022/02/01 10:26:03;;;;;;;33.57;16.10;;;7.00;99.90;;;;;;5061393;28;20713;-67
2022/02/01 10:28:50;;;;;;;25.60;13.67;;;7.00;99.90;;;;;;5064262;28;20227;-67
2022/02/01 10:31:27;;;;;;;33.97;14.93;;;7.10;99.90;;;;;;5057666;28;20192;-67
2022/02/01 10:34:25;;;;;;;27.67;13.43;;;7.00;99.90;;;;;;5063177;28;20204;-67
2022/02/01 10:36:54;;;;;;;25.30;13.30;;;7.10;99.90;;;;;;5068347;28;20232;-66
2022/02/01 10:39:24;;;;;;;25.80;12.10;;;7.10;99.90;;;;;;5058323;28;20208;-67
2022/02/01 10:41:59;;;;;;;21.97;12.43;;;7.20;99.90;;;;;;5068259;28;20192;-67
2022/02/01 10:44:39;;;;;;;23.73;12.73;;;7.20;99.90;;;;;;5065460;28;20261;-67
2022/02/01 10:47:08;;;;;;;24.07;12.47;;;7.30;99.90;;;;;;5075127;28;20289;-67
2022/02/01 10:50:03;;;;;;;23.87;11.80;;;7.30;99.90;;;;;;5069125;28;20283;-67
2022/02/01 10:52:34;;;;;;;23.03;13.33;;;7.30;99.90;;;;;;5067817;28;20653;-67
2022/02/01 10:55:05;;;;;;;19.30;11.27;;;7.30;99.90;;;;;;5066637;28;20242;-67
2022/02/01 10:57:34;;;;;;;20.30;11.17;;;7.30;99.90;;;;;;5067918;28;20686;-67
2022/02/01 11:00:04;;;;;;;19.40;10.37;;;7.40;99.90;;;;;;5072074;28;20227;-67
2022/02/01 11:02:33;;;;;;;22.30;11.80;;;7.40;99.90;;;;;;5064389;28;20255;-67
2022/02/01 11:05:06;;;;;;;21.10;11.87;;;7.50;99.90;;;;;;5067941;28;20231;-67
2022/02/01 11:07:55;;;;;;;23.37;11.77;;;7.60;99.90;;;;;;5077825;28;20419;-68
2022/02/01 11:10:24;;;;;;;19.57;11.33;;;7.60;99.90;;;;;;5059903;28;20208;-66
2022/02/01 11:12:52;;;;;;;20.57;11.53;;;7.60;99.90;;;;;;5053687;28;20199;-66
2022/02/01 11:15:24;;;;;;;23.83;11.90;;;7.70;99.90;;;;;;5072431;28;20291;-67
2022/02/01 11:17:57;;;;;;;19.10;11.60;;;7.80;99.90;;;;;;5054385;28;20283;-67
2022/02/01 11:20:28;;;;;;;22.43;11.73;;;7.90;99.90;;;;;;5060634;28;20208;-67
2022/02/01 11:23:04;;;;;;;24.20;10.77;;;7.90;99.90;;;;;;5071164;28;20296;-67
2022/02/01 11:25:45;;;;;;;20.60;11.07;;;7.90;99.90;;;;;;5072454;28;20296;-67
2022/02/01 11:28:33;;;;;;;23.40;10.87;;;7.80;99.90;;;;;;5057015;28;20204;-66
2022/02/01 11:31:03;;;;;;;22.27;10.43;;;7.80;99.90;;;;;;5059655;28;20211;-67
2022/02/01 11:33:37;;;;;;;21.53;10.57;;;7.80;99.90;;;;;;5066209;28;20188;-67
2022/02/01 11:36:08;;;;;;;19.00;10.00;;;7.90;99.90;;;;;;5063487;28;20283;-67
2022/02/01 11:38:50;;;;;;;21.00;10.13;;;8.00;99.90;;;;;;5060968;28;20204;-65
2022/02/01 11:41:31;;;;;;;21.17;8.83;;;8.00;99.90;;;;;;5071937;28;20290;-67
2022/02/01 11:44:11;;;;;;;19.60;8.47;;;8.10;99.90;;;;;;5057637;28;20236;-67
2022/02/01 11:46:40;;;;;;;22.73;8.40;;;8.20;99.90;;;;;;5071453;28;20270;-67
2022/02/01 11:49:09;;;;;;;21.50;7.83;;;8.30;99.90;;;;;;5064334;28;20216;-67
2022/02/01 11:52:08;;;;;;;18.47;7.93;;;8.30;99.90;;;;;;5059150;28;20205;-67
2022/02/01 11:54:37;;;;;;;20.37;7.97;;;8.30;99.90;;;;;;5056643;28;20196;-65
2022/02/01 11:57:15;;;;;;;18.27;6.97;;;8.30;99.90;;;;;;5059832;28;20200;-67
2022/02/01 11:59:51;;;;;;;19.17;7.30;;;8.30;99.90;;;;;;5063192;28;20203;-67
2022/02/01 12:02:28;;;;;;;20.70;6.73;;;8.40;99.90;;;;;;5052419;28;20250;-66
2022/02/01 12:05:42;;;;;;;18.53;6.93;;;8.30;99.90;;;;;;5057061;28;22092;-67
2022/02/01 12:08:17;;;;;;;17.53;7.57;;;8.40;99.90;;;;;;5058365;28;20219;-67
2022/02/01 12:10:48;;;;;;;21.33;7.30;;;8.40;99.90;;;;;;5062764;28;20246;-67
2022/02/01 12:13:18;;;;;;;19.13;7.43;;;8.40;99.90;;;;;;5051810;28;20197;-67
2022/02/01 12:15:48;;;;;;;17.73;7.30;;;8.50;99.90;;;;;;5059486;28;20228;-66
2022/02/01 12:18:34;;;;;;;18.20;7.10;;;8.50;99.90;;;;;;5057746;28;20228;-66
2022/02/01 12:21:18;;;;;;;15.93;6.80;;;8.60;99.90;;;;;;5066273;28;20569;-67
2022/02/01 12:23:49;;;;;;;20.67;7.10;;;8.60;99.90;;;;;;5059966;28;20205;-67
2022/02/01 12:26:20;;;;;;;16.73;6.67;;;8.70;99.90;;;;;;5060397;28;20224;-67
2022/02/01 12:28:49;;;;;;;20.63;6.30;;;8.80;99.90;;;;;;5070631;28;20191;-67
2022/02/01 12:31:19;;;;;;;15.07;6.07;;;8.90;99.90;;;;;;5073952;28;20244;-66
2022/02/01 12:33:51;;;;;;;20.43;6.47;;;8.90;99.90;;;;;;5059764;28;20324;-67
2022/02/01 12:36:27;;;;;;;18.23;6.53;;;9.00;99.90;;;;;;5068072;28;20193;-67
2022/02/01 12:39:02;;;;;;;18.50;6.10;;;9.10;99.90;;;;;;5064971;28;20569;-67
2022/02/01 12:41:40;;;;;;;14.83;5.87;;;9.20;99.90;;;;;;5063238;28;20894;-67
2022/02/01 12:47:05;;;;;;;22.10;6.57;;;9.20;99.90;;;;;;5038349;28;21995;-66
2022/02/01 12:49:41;;;;;;;23.40;8.00;;;9.20;99.90;;;;;;5059200;28;20219;-66
2022/02/01 12:52:19;;;;;;;16.73;6.63;;;9.20;99.90;;;;;;5066336;28;20303;-66
2022/02/01 12:54:59;;;;;;;16.67;6.40;;;9.30;99.90;;;;;;5067083;28;20219;-66
2022/02/01 12:57:29;;;;;;;19.80;6.77;;;9.30;99.90;;;;;;5066983;28;20199;-66
2022/02/01 13:00:02;;;;;;;20.97;7.30;;;9.30;99.90;;;;;;5068424;28;20202;-66
2022/02/01 13:02:34;;;;;;;19.37;7.23;;;9.40;99.90;;;;;;5058508;28;20193;-66
2022/02/01 13:05:05;;;;;;;15.50;6.87;;;9.40;99.90;;;;;;5066396;28;20207;-66
2022/02/01 13:07:49;;;;;;;14.50;6.73;;;9.50;99.90;;;;;;5061729;28;20307;-66
2022/02/01 13:13:49;;;;;;;23.43;6.57;;;9.50;99.90;;;;;;5061245;28;20279;-66
2022/02/01 13:16:22;;;;;;;17.27;6.23;;;9.50;99.90;;;;;;5066595;28;20514;-66
2022/02/01 13:21:48;;;;;;;17.40;7.23;;;9.80;99.90;;;;;;5064847;28;20245;-65
2022/02/01 13:24:17;;;;;;;20.70;6.87;;;9.90;99.90;;;;;;5070333;28;20595;-66
2022/02/01 13:27:17;;;;;;;14.63;6.87;;;9.90;99.90;;;;;;5059189;28;20620;-66
2022/02/01 13:29:46;;;;;;;15.73;7.03;;;10.00;99.90;;;;;;5063087;28;20234;-66
2022/02/01 13:32:14;;;;;;;14.60;6.67;;;10.10;99.90;;;;;;5059307;28;20200;-67
2022/02/01 13:34:42;;;;;;;5.77;4.67;;;10.10;99.90;;;;;;5059034;28;20196;-65
2022/02/01 13:37:20;;;;;;;17.00;6.13;;;10.10;99.90;;;;;;5064982;28;20200;-66
2022/02/01 13:39:49;;;;;;;16.53;5.73;;;10.10;99.90;;;;;;5070117;28;20226;-66
2022/02/01 13:42:28;;;;;;;13.17;5.60;;;10.20;99.90;;;;;;5057324;28;20564;-66
2022/02/01 13:45:08;;;;;;;15.37;5.47;;;10.30;99.90;;;;;;5064905;28;20331;-66
2022/02/01 13:47:39;;;;;;;9.73;5.20;;;10.30;99.90;;;;;;5069764;28;20270;-66
2022/02/01 13:50:11;;;;;;;13.00;6.07;;;10.40;99.90;;;;;;5064025;28;20230;-66
2022/02/01 13:52:40;;;;;;;15.13;5.97;;;10.40;99.90;;;;;;5066893;28;20220;-66
2022/02/01 13:55:19;;;;;;;15.27;5.23;;;10.30;99.90;;;;;;5065010;28;20242;-66
2022/02/01 13:57:48;;;;;;;13.50;6.23;;;10.30;99.90;;;;;;5062156;28;21122;-66
2022/02/01 14:00:18;;;;;;;12.73;5.67;;;10.30;99.90;;;;;;5064683;28;20196;-66
2022/02/01 14:02:57;;;;;;;11.03;5.47;;;10.20;99.90;;;;;;5062871;28;20220;-66
2022/02/01 14:05:31;;;;;;;12.47;5.00;;;10.10;99.90;;;;;;5065052;28;20185;-66
2022/02/01 14:08:18;;;;;;;8.90;5.80;;;10.10;99.90;;;;;;5064273;28;20625;-66
2022/02/01 14:11:32;;;;;;;11.37;6.10;;;10.10;99.90;;;;;;5063144;28;20455;-66
2022/02/01 14:14:22;;;;;;;10.57;5.57;;;10.10;99.90;;;;;;5061513;28;20214;-67
2022/02/01 14:25:45;;;;;;;18.73;5.67;;;10.20;99.90;;;;;;5065388;28;20199;-66
2022/02/01 14:28:22;;;;;;;11.33;5.23;;;10.20;99.90;;;;;;5065994;28;20282;-66
2022/02/01 14:33:54;;;;;;;22.80;7.13;;;10.20;99.90;;;;;;5056495;28;20228;-66
2022/02/01 14:36:28;;;;;;;13.27;5.57;;;10.30;99.90;;;;;;5056212;28;20719;-66
2022/02/01 14:39:09;;;;;;;12.60;6.13;;;10.30;99.90;;;;;;5059835;28;20559;-66
2022/02/01 14:44:33;;;;;;;17.73;5.53;;;10.40;99.90;;;;;;5060868;28;20240;-66